Thatcham, United Kingdom
Current Conditions -  °F | °C
As of 10:50 PM on Thursday 18 Dec 2014 (Local Time) from EGUB Reporting Station
Overcast Overcast  
Wind Chill: 54°   Ceiling: 1000
Heat Index: 54°   Visibility: 6mi
Dew Point: 50°   Wind: 17mph
Humidity: 88%   Direction: 210°SSW
Pressure: 29.83"   Gusts: NA
Location:  51.4°N, 1.26°W
Report Text: EGUB 182250Z 21015KT 9999 OVC010 12/10 Q1010 GRN
Loading
Personal Weather Stations






























Interactive Weather Map New forecast layout! Learn more

10-Day Weather Forecast

Advertisements
Track Severe Weather on mobile